Terminal Aerodrome Forecast
Issued by NWS

Current Version | Previous Version | Text Only | Print | Product List | Glossary Off
Versions: 1 2 3 4 5 6 7 8 9 10 11 12 13 14 15 16 17 18 19 20 21 22

000
FTUS41 KILN 301100 RRA
TAFLUK
TAF
KLUK 301141Z 3012/3112 00000KT P6SM SCT040
     FM301500 26008KT P6SM BKN040
     FM302300 VRB03KT P6SM SCT040
     FM310800 00000KT 2SM BR SCT040=

USA.gov is the U.S. government's official web portal to all federal, state and local government web resources and services.